Time;durP1;ratioP1;P1;durP2;ratioP2;P2;SDS_P1;SDS_P2;PMS_P1;PMS_P2;Temp;Humidity;BMP_temperature;BMP_pressure;BME280_temperature;BME280_humidity;BME280_pressure;Samples;Min_cycle;Max_cycle;Signal;HPM_P1;HPM_P2
2022/12/13 00:00:15;;;;;;;31.63;17.10;;;-3.80;99.90;;;;;;5102704;28;20036;-62
2022/12/13 00:02:41;;;;;;;33.17;15.88;;;-2.50;99.90;;;;;;5106064;28;20065;-62
2022/12/13 00:05:07;;;;;;;36.22;16.77;;;-3.80;99.90;;;;;;5084564;28;20043;-61
2022/12/13 00:07:34;;;;;;;34.47;16.33;;;-3.90;99.90;;;;;;5104401;28;20051;-61
2022/12/13 00:10:00;;;;;;;32.17;16.40;;;-3.90;99.90;;;;;;5105403;28;20053;-62
2022/12/13 00:12:26;;;;;;;36.03;17.15;;;-4.00;99.90;;;;;;5103629;28;20111;-62
2022/12/13 00:14:52;;;;;;;39.47;18.15;;;-4.00;99.90;;;;;;5104959;28;20043;-62
2022/12/13 00:17:18;;;;;;;35.58;17.70;;;-4.00;99.90;;;;;;5101365;28;20048;-62
2022/12/13 00:19:45;;;;;;;35.85;17.50;;;-4.00;99.90;;;;;;5080678;28;20181;-61
2022/12/13 00:22:11;;;;;;;33.50;16.90;;;-4.00;99.90;;;;;;5103716;28;21522;-63
2022/12/13 00:24:37;;;;;;;34.03;17.05;;;-4.00;99.90;;;;;;5105241;28;20044;-62
2022/12/13 00:27:03;;;;;;;31.45;16.60;;;-4.10;99.90;;;;;;5078949;28;20047;-62
2022/12/13 00:29:29;;;;;;;36.38;16.75;;;-4.10;99.90;;;;;;5105978;28;21273;-63
2022/12/13 00:31:54;;;;;;;31.45;16.00;;;-4.30;99.90;;;;;;5088074;28;20137;-62
2022/12/13 00:34:20;;;;;;;35.92;17.02;;;-4.20;99.90;;;;;;5103118;28;20079;-62
2022/12/13 00:36:47;;;;;;;32.90;16.70;;;-4.20;99.90;;;;;;5105959;28;20059;-62
2022/12/13 00:39:15;;;;;;;38.03;18.98;;;-4.20;99.90;;;;;;5083846;28;20047;-61
2022/12/13 00:41:42;;;;;;;33.78;16.35;;;-4.20;99.90;;;;;;5088786;28;20416;-62
2022/12/13 00:44:10;;;;;;;33.80;17.38;;;-4.20;99.90;;;;;;5109377;28;20568;-61
2022/12/13 00:46:36;;;;;;;34.88;17.70;;;-4.20;99.90;;;;;;5106799;28;20045;-63
2022/12/13 00:49:02;;;;;;;38.28;16.98;;;-4.20;99.90;;;;;;5108289;28;20047;-62
2022/12/13 00:51:29;;;;;;;33.33;17.35;;;-4.20;99.90;;;;;;5106253;28;20088;-62
2022/12/13 00:53:55;;;;;;;35.20;16.27;;;-4.20;99.90;;;;;;5110759;28;20122;-62
2022/12/13 00:56:25;;;;;;;31.90;15.40;;;-4.20;99.90;;;;;;5069635;28;20074;-62
2022/12/13 00:58:52;;;;;;;38.08;17.15;;;-4.20;99.90;;;;;;5109419;28;20055;-62
2022/12/13 01:01:19;;;;;;;31.15;15.70;;;-4.20;99.90;;;;;;5113021;28;20080;-61
2022/12/13 01:03:45;;;;;;;32.20;16.30;;;-4.30;99.90;;;;;;5112171;28;20047;-63
2022/12/13 01:06:24;;;;;;;35.60;17.00;;;-4.30;99.90;;;;;;5110438;28;20065;-62
2022/12/13 01:08:50;;;;;;;32.25;16.55;;;-4.30;99.90;;;;;;5089896;28;20048;-62
2022/12/13 01:11:17;;;;;;;29.20;15.82;;;-4.30;99.90;;;;;;5109085;27;20050;-64
2022/12/13 01:13:43;;;;;;;38.22;17.65;;;-4.30;99.90;;;;;;5105670;28;20089;-63
2022/12/13 01:16:11;;;;;;;33.35;16.00;;;-4.30;99.90;;;;;;5090344;28;20048;-63
2022/12/13 01:18:38;;;;;;;32.72;15.77;;;-4.40;99.90;;;;;;5108045;28;20082;-63
2022/12/13 01:21:06;;;;;;;33.30;16.40;;;-4.40;99.90;;;;;;5082675;28;20027;-61
2022/12/13 01:23:33;;;;;;;31.17;15.63;;;-4.40;99.90;;;;;;5089799;28;20032;-62
2022/12/13 01:26:04;;;;;;;32.85;16.08;;;-4.40;99.90;;;;;;5105050;28;20765;-64
2022/12/13 01:28:30;;;;;;;37.80;15.48;;;-4.40;99.90;;;;;;5107538;28;20074;-62
2022/12/13 01:30:57;;;;;;;32.83;16.05;;;-4.40;99.90;;;;;;5109826;28;20052;-63
2022/12/13 01:33:23;;;;;;;36.50;17.15;;;-4.40;99.90;;;;;;5088538;28;20050;-63
2022/12/13 01:35:49;;;;;;;32.60;15.55;;;-4.50;99.90;;;;;;5108598;28;20086;-62
2022/12/13 01:38:14;;;;;;;33.85;15.80;;;-4.50;99.90;;;;;;5105746;28;20043;-62
2022/12/13 01:40:49;;;;;;;34.85;16.20;;;-3.60;99.90;;;;;;5090563;28;20055;-62
2022/12/13 01:43:15;;;;;;;31.75;15.63;;;-4.50;99.90;;;;;;5105161;28;20035;-62
2022/12/13 01:45:42;;;;;;;35.78;16.75;;;-4.60;99.90;;;;;;5108814;28;20736;-62
2022/12/13 01:48:16;;;;;;;31.17;15.13;;;-4.60;99.90;;;;;;5105981;28;20116;-61
2022/12/13 01:50:46;;;;;;;31.38;16.45;;;-4.60;99.90;;;;;;5086331;28;20071;-62
2022/12/13 01:53:17;;;;;;;35.00;16.58;;;-4.60;99.90;;;;;;5107125;28;20036;-63
2022/12/13 01:55:45;;;;;;;30.27;15.35;;;-4.60;99.90;;;;;;5085542;28;20039;-63
2022/12/13 01:58:12;;;;;;;33.95;17.02;;;-4.70;99.90;;;;;;5081013;28;20103;-62
2022/12/13 02:00:39;;;;;;;34.38;16.30;;;-4.70;99.90;;;;;;5105556;28;20032;-63
2022/12/13 02:03:05;;;;;;;34.17;16.73;;;-4.70;99.90;;;;;;5107378;28;20107;-62
2022/12/13 02:05:44;;;;;;;32.67;15.85;;;-4.70;99.90;;;;;;5084003;28;20067;-61
2022/12/13 02:08:13;;;;;;;33.47;16.58;;;-4.70;99.90;;;;;;5104972;27;20293;-62
2022/12/13 02:10:40;;;;;;;35.55;16.98;;;-4.70;99.90;;;;;;5107607;28;20040;-62
2022/12/13 02:13:06;;;;;;;35.17;17.30;;;-4.70;99.90;;;;;;5104289;27;20054;-62
2022/12/13 02:15:58;;;;;;;32.55;15.80;;;-4.70;99.90;;;;;;5107233;28;20052;-63
2022/12/13 02:18:32;;;;;;;33.17;16.60;;;-4.70;99.90;;;;;;5083494;28;20052;-62
2022/12/13 02:21:15;;;;;;;32.10;17.23;;;-4.60;99.90;;;;;;5083194;28;20055;-62
2022/12/13 02:24:17;;;;;;;36.60;17.48;;;-4.70;99.90;;;;;;5087459;28;20066;-63
2022/12/13 02:27:10;;;;;;;38.60;17.75;;;-4.70;99.90;;;;;;5086163;28;20104;-63
2022/12/13 02:30:14;;;;;;;33.45;17.08;;;-4.80;99.90;;;;;;5086696;28;20085;-62
2022/12/13 02:32:56;;;;;;;38.90;18.13;;;-4.80;99.90;;;;;;5087199;28;20052;-62
2022/12/13 02:35:29;;;;;;;40.30;18.55;;;-4.80;99.90;;;;;;5086714;28;20162;-62
2022/12/13 02:38:02;;;;;;;35.80;17.02;;;-4.90;99.90;;;;;;5084149;28;20044;-62
2022/12/13 02:40:45;;;;;;;36.67;17.77;;;-4.90;99.90;;;;;;5087169;28;20047;-62
2022/12/13 02:43:25;;;;;;;42.35;18.85;;;-4.90;99.90;;;;;;5083353;28;20058;-63
2022/12/13 02:46:00;;;;;;;38.65;18.10;;;-4.90;99.90;;;;;;5085156;28;20698;-65
2022/12/13 02:48:33;;;;;;;37.15;17.75;;;-4.90;99.90;;;;;;5084738;28;20060;-62
2022/12/13 02:51:02;;;;;;;36.92;18.15;;;-4.90;99.90;;;;;;5084494;28;20618;-62
2022/12/13 02:53:29;;;;;;;37.70;18.63;;;-4.90;99.90;;;;;;5086042;28;20040;-62
2022/12/13 02:55:54;;;;;;;39.10;18.45;;;-4.90;99.90;;;;;;5075755;28;20048;-63
2022/12/13 02:58:31;;;;;;;35.55;17.58;;;-4.90;99.90;;;;;;5085328;28;20071;-63
2022/12/13 03:01:30;;;;;;;38.78;16.80;;;-4.90;99.90;;;;;;5100264;28;20557;-63
2022/12/13 03:04:14;;;;;;;34.10;17.13;;;-4.90;99.90;;;;;;5082602;28;20040;-64
2022/12/13 03:06:58;;;;;;;37.75;17.73;;;-4.90;99.90;;;;;;5086356;28;20062;-62
2022/12/13 03:09:42;;;;;;;41.42;17.35;;;-4.90;99.90;;;;;;5083491;28;20108;-64
2022/12/13 03:15:33;;;;;;;33.63;16.55;;;-3.50;99.90;;;;;;5087460;28;20056;-63
2022/12/13 03:18:02;;;;;;;34.00;15.63;;;-4.90;99.90;;;;;;5093033;28;20051;-63
2022/12/13 03:20:29;;;;;;;33.47;16.85;;;-4.90;99.90;;;;;;5103461;28;20063;-63
2022/12/13 03:22:55;;;;;;;33.20;16.15;;;-4.90;99.90;;;;;;5087313;28;20047;-63
2022/12/13 03:25:23;;;;;;;38.83;16.60;;;-4.90;99.90;;;;;;5102914;28;20107;-63
2022/12/13 03:27:49;;;;;;;32.58;16.48;;;-4.90;99.90;;;;;;5105595;28;20050;-62
2022/12/13 03:30:15;;;;;;;30.63;15.10;;;-4.90;99.90;;;;;;5105671;28;20048;-64
2022/12/13 03:32:40;;;;;;;29.42;16.02;;;-5.00;99.90;;;;;;5106321;28;20482;-63
2022/12/13 03:35:07;;;;;;;33.33;16.80;;;-4.90;99.90;;;;;;5104419;28;20415;-63
2022/12/13 03:37:32;;;;;;;37.63;17.88;;;-4.90;99.90;;;;;;5083929;28;20616;-63
2022/12/13 03:39:58;;;;;;;34.97;16.30;;;-5.00;99.90;;;;;;5105404;28;20036;-63
2022/12/13 03:42:24;;;;;;;30.27;15.13;;;-5.00;99.90;;;;;;5102114;28;20058;-62
2022/12/13 03:44:50;;;;;;;32.33;16.45;;;-5.00;99.90;;;;;;5106421;28;20055;-63
2022/12/13 03:47:16;;;;;;;32.70;15.75;;;-5.00;99.90;;;;;;5102856;28;20044;-62
2022/12/13 03:49:42;;;;;;;29.95;15.63;;;-5.00;99.90;;;;;;5088347;28;20062;-62
2022/12/13 03:52:07;;;;;;;28.63;15.32;;;-5.10;99.90;;;;;;5085487;28;20773;-63
2022/12/13 03:54:33;;;;;;;34.17;15.90;;;-5.10;99.90;;;;;;5105078;28;20876;-63
2022/12/13 03:56:59;;;;;;;35.67;14.82;;;-5.00;99.90;;;;;;5062749;28;20047;-63
2022/12/13 03:59:25;;;;;;;31.05;15.85;;;-5.10;99.90;;;;;;5103107;28;20051;-62
2022/12/13 04:01:50;;;;;;;30.67;15.93;;;-5.10;99.90;;;;;;5106237;28;20040;-62
2022/12/13 04:04:16;;;;;;;28.20;15.55;;;-5.10;99.90;;;;;;5102234;28;20099;-63
2022/12/13 04:06:42;;;;;;;33.72;16.45;;;-5.20;99.90;;;;;;5105070;28;20131;-65
2022/12/13 04:09:07;;;;;;;34.15;15.93;;;-5.10;99.90;;;;;;5079139;28;20051;-65
2022/12/13 04:14:17;;;;;;;32.75;15.38;;;-5.20;99.90;;;;;;5104819;28;20058;-64
2022/12/13 04:16:43;;;;;;;33.53;16.13;;;-5.20;99.90;;;;;;5105377;28;20043;-62
2022/12/13 04:19:09;;;;;;;35.67;15.80;;;-5.20;99.90;;;;;;5090395;28;20052;-62
2022/12/13 04:21:34;;;;;;;32.97;16.38;;;-5.30;99.90;;;;;;5081385;28;20044;-63
2022/12/13 04:24:00;;;;;;;30.25;15.23;;;-5.30;99.90;;;;;;5091481;28;20111;-64
2022/12/13 04:26:26;;;;;;;36.78;16.17;;;-5.30;99.90;;;;;;5106409;28;20058;-63
2022/12/13 04:28:51;;;;;;;30.70;15.95;;;-5.30;99.90;;;;;;5093419;28;20052;-62
2022/12/13 04:31:17;;;;;;;29.00;14.60;;;-5.40;99.90;;;;;;5110106;28;20058;-63
2022/12/13 04:33:43;;;;;;;32.75;16.20;;;-5.30;99.90;;;;;;5107290;28;20499;-63
2022/12/13 04:36:08;;;;;;;30.05;15.90;;;-5.30;99.90;;;;;;5091530;28;20067;-64
2022/12/13 04:38:34;;;;;;;36.03;15.25;;;-5.40;99.90;;;;;;5105692;28;20162;-64
2022/12/13 04:41:07;;;;;;;29.17;15.38;;;-5.40;99.90;;;;;;5108612;28;20048;-64
2022/12/13 04:43:33;;;;;;;36.78;16.75;;;-5.40;99.90;;;;;;5106418;28;20703;-65
2022/12/13 04:45:59;;;;;;;31.20;15.23;;;-5.40;99.90;;;;;;5107532;28;20047;-64
2022/12/13 04:48:24;;;;;;;34.75;16.05;;;-5.40;99.90;;;;;;5109036;28;20054;-63
2022/12/13 04:50:50;;;;;;;35.08;15.95;;;-5.40;99.90;;;;;;5105965;28;20049;-65
2022/12/13 04:53:16;;;;;;;30.65;16.08;;;-5.50;99.90;;;;;;5108189;28;20065;-63
2022/12/13 04:55:41;;;;;;;31.50;15.80;;;-5.50;99.90;;;;;;5105183;28;20047;-64
2022/12/13 04:58:07;;;;;;;30.35;15.27;;;-5.50;99.90;;;;;;5108076;28;20495;-63
2022/12/13 05:00:33;;;;;;;31.60;14.70;;;-5.40;99.90;;;;;;5083611;28;20036;-62
2022/12/13 05:02:58;;;;;;;29.65;15.45;;;-5.50;99.90;;;;;;5110390;28;20191;-64
2022/12/13 05:05:24;;;;;;;30.10;15.55;;;-5.50;99.90;;;;;;5089930;28;20185;-64
2022/12/13 05:07:50;;;;;;;35.90;16.67;;;-5.40;99.90;;;;;;5082045;28;20052;-66
2022/12/13 05:10:15;;;;;;;29.95;15.93;;;-5.50;99.90;;;;;;5106906;28;20050;-65
2022/12/13 05:12:41;;;;;;;33.70;15.38;;;-5.50;99.90;;;;;;5084612;28;20039;-64
2022/12/13 05:15:07;;;;;;;33.70;16.42;;;-5.40;99.90;;;;;;5083360;28;20050;-63
2022/12/13 05:17:33;;;;;;;35.05;16.13;;;-5.50;99.90;;;;;;5104672;28;20737;-63
2022/12/13 05:19:59;;;;;;;32.25;15.95;;;-5.50;99.90;;;;;;5106798;28;20074;-62
2022/12/13 05:22:25;;;;;;;38.25;16.02;;;-5.50;99.90;;;;;;5106253;28;20052;-66
2022/12/13 05:24:51;;;;;;;33.88;16.40;;;-5.50;99.90;;;;;;5070885;28;20051;-65
2022/12/13 05:27:17;;;;;;;33.88;16.30;;;-5.60;99.90;;;;;;5106315;28;20043;-62
2022/12/13 05:29:43;;;;;;;30.52;15.10;;;-5.50;99.90;;;;;;5107793;28;20043;-64
2022/12/13 05:32:08;;;;;;;29.45;15.88;;;-5.50;99.90;;;;;;5107903;28;20062;-63
2022/12/13 05:34:34;;;;;;;35.95;16.92;;;-5.60;99.90;;;;;;5103577;28;20063;-64
2022/12/13 05:37:00;;;;;;;34.42;16.08;;;-5.50;99.90;;;;;;5108430;28;20047;-64
2022/12/13 05:39:26;;;;;;;37.30;16.20;;;-3.50;99.90;;;;;;5106304;28;20036;-62
2022/12/13 05:41:53;;;;;;;35.53;16.02;;;-5.50;99.90;;;;;;5105957;28;20044;-64
2022/12/13 05:44:19;;;;;;;33.53;16.33;;;-5.50;99.90;;;;;;5109869;28;20052;-63
2022/12/13 05:46:44;;;;;;;35.88;15.27;;;-5.30;99.90;;;;;;5087464;28;20052;-63
2022/12/13 05:49:10;;;;;;;31.08;16.13;;;-5.60;99.90;;;;;;5109289;28;20450;-62
2022/12/13 05:51:35;;;;;;;31.38;15.10;;;-5.60;99.90;;;;;;5105215;28;20071;-65
2022/12/13 05:54:01;;;;;;;34.90;15.80;;;-5.70;99.90;;;;;;5108210;28;20081;-64
2022/12/13 05:56:27;;;;;;;33.42;15.30;;;-5.70;99.90;;;;;;5106251;28;20039;-63
2022/12/13 05:58:53;;;;;;;31.77;16.27;;;-5.70;99.90;;;;;;5107719;28;20036;-63
2022/12/13 06:01:19;;;;;;;35.97;15.73;;;-5.70;99.90;;;;;;5108235;28;20057;-63
2022/12/13 06:03:44;;;;;;;34.58;15.50;;;-5.70;99.90;;;;;;5067620;28;20048;-64
2022/12/13 06:06:11;;;;;;;33.38;17.08;;;-5.70;99.90;;;;;;5089396;28;20058;-61
2022/12/13 06:08:38;;;;;;;31.38;16.35;;;-5.70;99.90;;;;;;5103814;28;20051;-62
2022/12/13 06:11:05;;;;;;;31.23;16.05;;;-5.70;99.90;;;;;;5107729;28;20048;-63
2022/12/13 06:13:31;;;;;;;34.85;16.73;;;-5.70;99.90;;;;;;5105704;28;20040;-65
2022/12/13 06:16:01;;;;;;;31.20;15.77;;;-5.70;99.90;;;;;;5107213;28;20139;-64
2022/12/13 06:18:30;;;;;;;33.05;15.55;;;-5.70;99.90;;;;;;5113537;28;20055;-62
2022/12/13 06:21:00;;;;;;;35.90;16.38;;;-5.70;99.90;;;;;;5110770;28;20039;-65
2022/12/13 06:23:27;;;;;;;33.53;17.60;;;-5.60;99.90;;;;;;5113516;28;20039;-64
2022/12/13 06:25:53;;;;;;;36.22;19.98;;;-5.60;99.90;;;;;;5108970;28;20032;-63
2022/12/13 06:28:19;;;;;;;35.10;18.55;;;-5.60;99.90;;;;;;5107882;27;20578;-64
2022/12/13 06:30:45;;;;;;;31.10;17.70;;;-5.60;99.90;;;;;;5107945;28;20061;-63
2022/12/13 06:33:11;;;;;;;34.63;17.50;;;-5.70;99.90;;;;;;5108327;28;20062;-64
2022/12/13 06:35:37;;;;;;;33.53;16.25;;;-5.70;99.90;;;;;;5106112;28;20502;-66
2022/12/13 06:38:02;;;;;;;37.95;18.42;;;-5.70;99.90;;;;;;5104438;28;20039;-63
2022/12/13 06:40:30;;;;;;;38.20;18.63;;;-5.70;99.90;;;;;;5087799;28;20046;-64
2022/12/13 06:42:55;;;;;;;33.83;16.50;;;-5.70;99.90;;;;;;5103664;28;20063;-63
2022/12/13 06:45:22;;;;;;;30.48;16.92;;;-5.80;99.90;;;;;;5106537;28;20043;-63
2022/12/13 06:47:48;;;;;;;33.63;16.10;;;-5.80;99.90;;;;;;5104430;28;20053;-63
2022/12/13 06:50:14;;;;;;;36.47;17.45;;;-5.90;99.90;;;;;;5105973;28;20229;-64
2022/12/13 06:52:39;;;;;;;32.47;16.85;;;-5.80;99.90;;;;;;5106176;28;20040;-67
2022/12/13 06:55:05;;;;;;;34.33;16.60;;;-5.80;99.90;;;;;;5102718;28;20043;-63
2022/12/13 06:57:32;;;;;;;34.28;16.98;;;-5.80;99.90;;;;;;5110737;28;20463;-63
2022/12/13 06:59:59;;;;;;;33.70;16.92;;;-5.80;99.90;;;;;;5109240;28;20035;-63
2022/12/13 07:02:24;;;;;;;39.40;17.30;;;-5.80;99.90;;;;;;5107530;28;20075;-65
2022/12/13 07:04:50;;;;;;;35.70;16.63;;;-5.50;99.90;;;;;;5098823;28;20050;-63
2022/12/13 07:07:16;;;;;;;31.98;15.77;;;-5.80;99.90;;;;;;5102674;28;20042;-63
2022/12/13 07:09:41;;;;;;;38.63;16.25;;;-5.80;99.90;;;;;;5104601;28;20126;-64
2022/12/13 07:12:07;;;;;;;30.10;15.02;;;-5.80;99.90;;;;;;5100781;28;20040;-64
2022/12/13 07:14:33;;;;;;;38.25;16.92;;;-6.00;99.90;;;;;;5085223;28;20050;-65
2022/12/13 07:16:58;;;;;;;35.53;16.88;;;-5.90;99.90;;;;;;5102132;28;20039;-64
2022/12/13 07:19:25;;;;;;;34.67;16.65;;;-5.90;99.90;;;;;;5104821;28;20132;-64
2022/12/13 07:21:51;;;;;;;35.15;17.08;;;-6.00;99.90;;;;;;5101952;28;20047;-64
2022/12/13 07:24:17;;;;;;;32.35;15.57;;;-5.90;99.90;;;;;;5105007;28;20039;-65
2022/12/13 07:26:42;;;;;;;33.35;17.00;;;-5.90;99.90;;;;;;5101312;28;20082;-63
2022/12/13 07:29:08;;;;;;;33.67;17.08;;;-5.90;99.90;;;;;;5102701;28;20087;-62
2022/12/13 07:31:35;;;;;;;30.85;17.00;;;-5.90;99.90;;;;;;5106978;28;20058;-62
2022/12/13 07:34:01;;;;;;;36.13;16.90;;;-5.90;99.90;;;;;;5103061;28;20063;-64
2022/12/13 07:36:26;;;;;;;35.95;18.15;;;-5.80;99.90;;;;;;5103934;28;20036;-64
2022/12/13 07:38:54;;;;;;;40.25;19.10;;;-5.90;99.90;;;;;;5102125;28;20035;-64
2022/12/13 07:41:21;;;;;;;36.17;18.50;;;-5.90;99.90;;;;;;5110218;28;20043;-63
2022/12/13 07:43:47;;;;;;;35.78;18.48;;;-5.80;99.90;;;;;;5109562;28;20290;-61
2022/12/13 07:46:13;;;;;;;34.05;16.83;;;-5.90;99.90;;;;;;5109937;28;20043;-64
2022/12/13 07:48:39;;;;;;;36.78;17.25;;;-5.80;99.90;;;;;;5109203;28;20079;-65
2022/12/13 07:51:06;;;;;;;37.22;17.70;;;-5.90;99.90;;;;;;5088634;28;20039;-66
2022/12/13 07:53:33;;;;;;;34.03;18.33;;;-5.90;99.90;;;;;;5110432;28;20055;-64
2022/12/13 07:56:08;;;;;;;37.33;17.63;;;-5.80;99.90;;;;;;5104524;28;20044;-65
2022/12/13 07:58:34;;;;;;;38.15;17.60;;;-5.80;99.90;;;;;;5110886;28;20054;-65
2022/12/13 08:01:06;;;;;;;37.53;18.77;;;-5.80;99.90;;;;;;5109413;28;20342;-63
2022/12/13 08:03:32;;;;;;;38.00;18.63;;;-5.70;99.90;;;;;;5108633;28;20073;-65
2022/12/13 08:06:10;;;;;;;42.42;18.90;;;-5.70;99.90;;;;;;5109937;28;20032;-65
2022/12/13 08:08:36;;;;;;;39.20;18.55;;;-5.70;99.90;;;;;;5106600;28;20062;-64
2022/12/13 08:11:10;;;;;;;39.72;18.23;;;-7.30;99.90;;;;;;5111120;28;20040;-65
2022/12/13 08:13:37;;;;;;;41.75;18.15;;;-5.60;99.90;;;;;;5108880;28;20075;-63
2022/12/13 08:16:05;;;;;;;39.80;19.20;;;-5.60;99.90;;;;;;5110306;28;20039;-64
2022/12/13 08:18:31;;;;;;;37.72;18.52;;;-5.60;99.90;;;;;;5110496;28;20055;-62
2022/12/13 08:21:02;;;;;;;37.00;17.95;;;-5.60;99.90;;;;;;5108658;28;20035;-65
2022/12/13 08:23:30;;;;;;;39.35;18.17;;;-5.50;99.90;;;;;;5092327;28;20082;-65
2022/12/13 08:25:56;;;;;;;37.88;18.83;;;-5.50;99.90;;;;;;5106372;28;20567;-63
2022/12/13 08:28:23;;;;;;;38.78;19.63;;;-5.50;99.90;;;;;;5086053;28;20051;-63
2022/12/13 08:30:50;;;;;;;39.45;20.02;;;-5.40;99.90;;;;;;5109404;28;20042;-60
2022/12/13 08:33:16;;;;;;;41.13;19.92;;;-5.40;99.90;;;;;;5074678;28;20533;-61
2022/12/13 08:35:42;;;;;;;47.17;20.17;;;-5.30;99.90;;;;;;5091927;28;20054;-61
2022/12/13 08:38:07;;;;;;;44.88;21.92;;;-5.30;99.90;;;;;;5107801;28;20039;-62
2022/12/13 08:40:33;;;;;;;43.15;19.95;;;-5.30;99.90;;;;;;5112353;28;20070;-62
2022/12/13 08:43:00;;;;;;;42.78;20.63;;;-5.20;99.90;;;;;;5090021;28;20055;-61
2022/12/13 08:45:26;;;;;;;44.05;20.65;;;-5.20;99.90;;;;;;5111447;28;20122;-62
2022/12/13 08:47:52;;;;;;;50.70;21.60;;;-5.20;99.90;;;;;;5108515;28;20043;-62
2022/12/13 08:50:18;;;;;;;45.67;21.38;;;-5.10;99.90;;;;;;5110032;28;20043;-63
2022/12/13 08:52:44;;;;;;;48.92;21.02;;;-5.10;99.90;;;;;;5109988;28;20055;-62
2022/12/13 08:55:11;;;;;;;48.33;22.58;;;-5.10;99.90;;;;;;5089963;28;20048;-62
2022/12/13 08:57:39;;;;;;;46.72;21.08;;;-5.10;99.90;;;;;;5108653;28;20043;-62
2022/12/13 09:00:06;;;;;;;43.72;20.55;;;-5.00;99.90;;;;;;5107043;28;20039;-61
2022/12/13 09:02:32;;;;;;;45.33;21.05;;;-5.00;99.90;;;;;;5112183;28;20344;-61
2022/12/13 09:04:58;;;;;;;43.40;20.65;;;-4.90;99.90;;;;;;5094916;28;20051;-64
2022/12/13 09:07:24;;;;;;;42.53;20.83;;;-4.80;99.90;;;;;;5095630;28;20059;-63
2022/12/13 09:09:49;;;;;;;48.83;22.67;;;-4.70;99.90;;;;;;5112172;28;20070;-62
2022/12/13 09:12:15;;;;;;;43.25;21.27;;;-4.70;99.90;;;;;;5107661;28;20050;-64
2022/12/13 09:14:41;;;;;;;48.58;22.10;;;-4.60;99.90;;;;;;5113934;28;20047;-65
2022/12/13 09:17:07;;;;;;;51.67;21.52;;;-4.40;99.90;;;;;;5110996;28;20088;-63
2022/12/13 09:19:32;;;;;;;45.05;20.05;;;-4.10;99.90;;;;;;5111946;28;20059;-62
2022/12/13 09:21:58;;;;;;;50.00;22.98;;;-4.00;99.90;;;;;;5092919;28;20652;-64
2022/12/13 09:24:24;;;;;;;53.80;23.10;;;-3.90;99.90;;;;;;5113564;28;20044;-63
2022/12/13 09:26:50;;;;;;;53.28;24.13;;;-3.80;99.90;;;;;;5112019;28;20236;-63
2022/12/13 09:29:16;;;;;;;46.83;23.35;;;-3.70;99.90;;;;;;5109674;28;20050;-63
2022/12/13 09:31:42;;;;;;;54.85;25.17;;;-3.70;99.90;;;;;;5111930;28;20511;-65
2022/12/13 09:34:09;;;;;;;45.15;24.10;;;-3.40;99.90;;;;;;5091770;28;20039;-63
2022/12/13 09:36:35;;;;;;;60.97;30.52;;;-2.90;99.90;;;;;;5113789;28;20074;-63
2022/12/13 09:39:01;;;;;;;50.70;24.85;;;-2.70;99.90;;;;;;5076707;28;20507;-63
2022/12/13 09:41:34;;;;;;;53.42;25.50;;;-2.40;99.90;;;;;;5111576;28;20043;-65
2022/12/13 09:44:25;;;;;;;54.33;24.42;;;-2.00;99.90;;;;;;5112531;28;20118;-64
2022/12/13 09:46:53;;;;;;;55.05;24.88;;;-1.20;99.90;;;;;;5109137;28;20729;-62
2022/12/13 09:49:37;;;;;;;53.83;26.48;;;-0.70;99.90;;;;;;5111941;27;20040;-63
2022/12/13 09:52:05;;;;;;;46.13;23.67;;;-0.10;99.90;;;;;;5089430;28;20050;-63
2022/12/13 09:54:32;;;;;;;51.15;24.63;;;0.70;99.90;;;;;;5113143;28;20403;-64
2022/12/13 09:56:58;;;;;;;43.38;23.60;;;0.80;99.90;;;;;;5111247;28;20063;-63
2022/12/13 09:59:31;;;;;;;43.85;22.25;;;1.00;99.90;;;;;;5110299;28;20070;-64
2022/12/13 10:02:02;;;;;;;45.22;23.48;;;1.20;99.90;;;;;;5095733;28;20131;-62
2022/12/13 10:04:28;;;;;;;43.15;23.42;;;1.30;99.90;;;;;;5109987;28;20039;-64
2022/12/13 10:06:56;;;;;;;45.63;24.85;;;1.80;99.90;;;;;;5079577;28;20047;-63
2022/12/13 10:09:22;;;;;;;47.72;25.00;;;2.30;99.90;;;;;;5109651;28;20118;-63
2022/12/13 10:11:52;;;;;;;41.65;22.88;;;2.50;99.90;;;;;;5110545;28;20526;-64
2022/12/13 10:14:25;;;;;;;42.63;23.55;;;2.70;99.90;;;;;;5111798;27;20043;-63
2022/12/13 10:16:56;;;;;;;39.75;23.15;;;2.80;99.90;;;;;;5109687;28;20035;-65
2022/12/13 10:19:34;;;;;;;41.95;23.60;;;2.80;99.90;;;;;;5112240;28;20060;-63
2022/12/13 10:22:03;;;;;;;39.17;22.65;;;3.20;99.90;;;;;;5110541;28;20044;-63
2022/12/13 10:24:53;;;;;;;40.58;23.58;;;3.10;99.90;;;;;;5112421;28;20046;-64
2022/12/13 10:27:24;;;;;;;41.45;23.50;;;3.00;99.90;;;;;;5110993;28;20099;-64
2022/12/13 10:30:11;;;;;;;36.45;21.27;;;2.90;99.90;;;;;;5109622;28;20050;-64
2022/12/13 10:32:49;;;;;;;40.50;22.02;;;2.80;99.90;;;;;;5110745;28;20043;-64
2022/12/13 10:35:17;;;;;;;40.05;22.80;;;2.50;99.90;;;;;;5111786;28;20035;-63
2022/12/13 10:37:43;;;;;;;41.25;23.10;;;2.10;99.90;;;;;;5109156;28;20108;-63
2022/12/13 10:40:39;;;;;;;40.60;22.65;;;1.60;99.90;;;;;;5112855;27;20073;-64
2022/12/13 10:43:29;;;;;;;39.47;22.23;;;1.40;99.90;;;;;;5109138;28;20482;-64
2022/12/13 10:45:57;;;;;;;38.28;21.83;;;1.10;99.90;;;;;;5108357;28;20293;-65
2022/12/13 10:48:35;;;;;;;41.97;23.00;;;0.80;99.90;;;;;;5089420;28;20122;-64
2022/12/13 10:51:10;;;;;;;41.38;21.38;;;0.50;99.90;;;;;;5109720;28;20214;-64
2022/12/13 10:53:39;;;;;;;41.65;23.15;;;0.30;99.90;;;;;;5112666;28;20091;-64
2022/12/13 10:56:06;;;;;;;42.22;22.33;;;0.10;99.90;;;;;;5108573;28;20059;-63
2022/12/13 10:58:42;;;;;;;39.85;21.67;;;-0.10;99.90;;;;;;5112085;28;20054;-61
2022/12/13 11:01:17;;;;;;;43.78;23.75;;;0.00;99.90;;;;;;5110662;28;20113;-64
2022/12/13 11:03:56;;;;;;;41.10;23.58;;;0.60;99.90;;;;;;5106386;28;20039;-63
2022/12/13 11:06:21;;;;;;;43.35;21.83;;;1.30;99.90;;;;;;5111759;28;20047;-63
2022/12/13 11:08:47;;;;;;;43.92;23.52;;;1.70;99.90;;;;;;5108868;28;20036;-63
2022/12/13 11:11:17;;;;;;;39.83;21.95;;;1.90;99.90;;;;;;5110061;28;20241;-65
2022/12/13 11:13:42;;;;;;;39.10;22.27;;;2.40;99.90;;;;;;5109191;28;20495;-64
2022/12/13 11:16:31;;;;;;;39.08;22.98;;;2.70;99.90;;;;;;5110537;28;20362;-63
2022/12/13 11:19:00;;;;;;;43.83;23.85;;;2.90;99.90;;;;;;5091920;28;20776;-64
2022/12/13 11:21:33;;;;;;;44.70;23.95;;;3.20;99.90;;;;;;5108827;28;20047;-64
2022/12/13 11:24:05;;;;;;;36.25;21.88;;;3.60;99.90;;;;;;5111496;28;20046;-63
2022/12/13 11:26:35;;;;;;;34.80;22.48;;;4.00;99.90;;;;;;5110176;28;20055;-63
2022/12/13 11:29:28;;;;;;;37.30;21.60;;;4.50;99.90;;;;;;5109303;28;20507;-65
2022/12/13 11:32:00;;;;;;;35.20;22.02;;;4.60;99.90;;;;;;5083489;28;20085;-64
2022/12/13 11:35:08;;;;;;;38.38;21.98;;;4.30;99.90;;;;;;5107026;28;20261;-65
2022/12/13 11:38:00;;;;;;;34.90;21.10;;;4.10;99.90;;;;;;5109657;28;20088;-62
2022/12/13 11:40:33;;;;;;;35.53;22.85;;;3.80;99.90;;;;;;5110683;28;20454;-64
2022/12/13 11:43:11;;;;;;;36.58;21.75;;;3.80;99.90;;;;;;5105518;28;20052;-65
2022/12/13 11:45:41;;;;;;;37.70;21.80;;;3.60;99.90;;;;;;5109390;28;20036;-64
2022/12/13 11:48:20;;;;;;;37.75;22.55;;;3.90;99.90;;;;;;5106914;28;20050;-62
2022/12/13 11:50:49;;;;;;;36.63;22.52;;;3.70;99.90;;;;;;5079785;28;20088;-63
2022/12/13 11:53:21;;;;;;;38.55;22.02;;;3.40;99.90;;;;;;5108027;28;20055;-63
2022/12/13 11:56:24;;;;;;;36.78;21.70;;;3.10;99.90;;;;;;5106823;28;20059;-63
2022/12/13 11:59:16;;;;;;;36.80;22.48;;;2.70;99.90;;;;;;5110054;28;20094;-63
2022/12/13 12:01:48;;;;;;;38.70;21.92;;;2.40;99.90;;;;;;5111412;28;20515;-62
2022/12/13 12:04:35;;;;;;;38.53;21.85;;;2.20;99.90;;;;;;5107672;28;20086;-62
2022/12/13 12:07:11;;;;;;;;;;;2.00;99.90;;;;;;5110930;28;20049;-61
2022/12/13 12:09:41;;;;;;;39.28;22.15;;;1.80;99.90;;;;;;5109362;28;20689;-61
2022/12/13 12:12:25;;;;;;;36.53;21.20;;;1.50;99.90;;;;;;5107180;28;20368;-61
2022/12/13 12:15:01;;;;;;;36.42;21.00;;;1.30;99.90;;;;;;5110370;28;20521;-62
2022/12/13 12:17:27;;;;;;;37.95;22.20;;;1.40;99.90;;;;;;5108542;28;20045;-62
2022/12/13 12:19:55;;;;;;;40.67;23.38;;;1.00;99.90;;;;;;5090866;28;20094;-63
2022/12/13 12:22:45;;;;;;;38.50;22.27;;;0.90;99.90;;;;;;5109178;28;20058;-63
2022/12/13 12:25:20;;;;;;;44.78;24.05;;;0.80;99.90;;;;;;5108139;28;20054;-62
2022/12/13 12:28:00;;;;;;;38.75;22.73;;;0.70;99.90;;;;;;5110161;28;20043;-61
2022/12/13 12:30:58;;;;;;;46.53;22.63;;;0.60;99.90;;;;;;5108210;28;20077;-61
2022/12/13 12:33:41;;;;;;;43.22;23.48;;;0.50;99.90;;;;;;5108323;28;20130;-61
2022/12/13 12:36:12;;;;;;;43.17;23.88;;;0.50;99.90;;;;;;5111685;28;20039;-61
2022/12/13 12:39:19;;;;;;;43.17;22.45;;;0.50;99.90;;;;;;5092894;28;20054;-62
2022/12/13 12:41:59;;;;;;;40.17;22.05;;;0.60;99.90;;;;;;5094966;28;20044;-61
2022/12/13 12:45:04;;;;;;;42.50;23.08;;;0.70;99.90;;;;;;5114997;28;20589;-61
2022/12/13 12:47:43;;;;;;;41.92;22.35;;;0.70;99.90;;;;;;5056830;28;20048;-61